sensor_id;sensor_type;location;lat;lon;timestamp;pressure;altitude;pressure_sealevel;temperature;humidity
3250;BME280;1637;42.020;23.992;2022-12-07T00:00:02;92779.44;;;1.34;100.00
3250;BME280;1637;42.020;23.992;2022-12-07T00:02:30;92788.44;;;1.49;100.00
3250;BME280;1637;42.020;23.992;2022-12-07T00:04:57;92786.91;;;1.48;100.00
3250;BME280;1637;42.020;23.992;2022-12-07T00:07:24;92782.78;;;1.31;100.00
3250;BME280;1637;42.020;23.992;2022-12-07T00:09:51;92786.78;;;1.41;100.00
3250;BME280;1637;42.020;23.992;2022-12-07T00:12:17;92786.00;;;1.76;100.00
3250;BME280;1637;42.020;23.992;2022-12-07T00:14:46;92788.75;;;1.98;100.00
3250;BME280;1637;42.020;23.992;2022-12-07T00:17:13;92793.06;;;2.06;100.00
3250;BME280;1637;42.020;23.992;2022-12-07T00:19:40;92791.94;;;2.08;100.00
3250;BME280;1637;42.020;23.992;2022-12-07T00:22:07;92789.44;;;1.95;100.00
3250;BME280;1637;42.020;23.992;2022-12-07T00:24:33;92789.00;;;1.93;100.00
3250;BME280;1637;42.020;23.992;2022-12-07T00:27:01;92791.41;;;1.48;100.00
3250;BME280;1637;42.020;23.992;2022-12-07T00:29:28;92788.00;;;1.47;100.00
3250;BME280;1637;42.020;23.992;2022-12-07T00:31:56;92788.78;;;1.48;100.00
3250;BME280;1637;42.020;23.992;2022-12-07T00:34:23;92790.94;;;1.26;100.00
3250;BME280;1637;42.020;23.992;2022-12-07T00:36:50;92712.97;;;0.62;100.00
3250;BME280;1637;42.020;23.992;2022-12-07T00:39:17;92800.22;;;0.89;100.00
3250;BME280;1637;42.020;23.992;2022-12-07T00:41:44;92793.84;;;0.90;100.00
3250;BME280;1637;42.020;23.992;2022-12-07T00:44:11;92804.06;;;0.91;100.00
3250;BME280;1637;42.020;23.992;2022-12-07T00:46:38;92806.78;;;1.42;100.00
3250;BME280;1637;42.020;23.992;2022-12-07T00:49:06;92805.88;;;1.54;100.00
3250;BME280;1637;42.020;23.992;2022-12-07T00:51:33;92797.25;;;1.37;100.00
3250;BME280;1637;42.020;23.992;2022-12-07T00:53:59;92792.81;;;1.26;100.00
3250;BME280;1637;42.020;23.992;2022-12-07T00:56:27;92784.06;;;1.22;100.00
3250;BME280;1637;42.020;23.992;2022-12-07T00:58:58;92788.25;;;1.23;100.00
3250;BME280;1637;42.020;23.992;2022-12-07T01:01:28;92792.75;;;1.22;100.00
3250;BME280;1637;42.020;23.992;2022-12-07T01:03:55;92772.34;;;1.03;100.00
3250;BME280;1637;42.020;23.992;2022-12-07T01:06:24;92773.88;;;0.89;100.00
3250;BME280;1637;42.020;23.992;2022-12-07T01:08:52;92766.81;;;0.77;100.00
3250;BME280;1637;42.020;23.992;2022-12-07T01:11:21;92780.50;;;1.14;100.00
3250;BME280;1637;42.020;23.992;2022-12-07T01:13:50;92789.34;;;1.22;100.00
3250;BME280;1637;42.020;23.992;2022-12-07T01:16:17;92775.56;;;1.13;100.00
3250;BME280;1637;42.020;23.992;2022-12-07T01:18:47;92776.91;;;1.07;100.00
3250;BME280;1637;42.020;23.992;2022-12-07T01:21:16;92767.91;;;1.08;100.00
3250;BME280;1637;42.020;23.992;2022-12-07T01:23:44;92758.47;;;0.91;100.00
3250;BME280;1637;42.020;23.992;2022-12-07T01:26:12;92763.59;;;0.99;100.00
3250;BME280;1637;42.020;23.992;2022-12-07T01:28:40;92759.31;;;0.95;100.00
3250;BME280;1637;42.020;23.992;2022-12-07T01:31:08;92758.13;;;0.77;100.00
3250;BME280;1637;42.020;23.992;2022-12-07T01:33:37;92753.97;;;0.76;100.00
3250;BME280;1637;42.020;23.992;2022-12-07T01:36:06;92758.03;;;0.57;100.00
3250;BME280;1637;42.020;23.992;2022-12-07T01:38:33;92762.88;;;0.40;100.00
3250;BME280;1637;42.020;23.992;2022-12-07T01:41:02;92767.25;;;0.20;100.00
3250;BME280;1637;42.020;23.992;2022-12-07T01:43:31;92766.19;;;0.37;100.00
3250;BME280;1637;42.020;23.992;2022-12-07T01:45:58;92768.63;;;0.45;100.00
3250;BME280;1637;42.020;23.992;2022-12-07T01:48:28;92770.72;;;0.24;100.00
3250;BME280;1637;42.020;23.992;2022-12-07T01:50:56;92772.13;;;0.49;100.00
3250;BME280;1637;42.020;23.992;2022-12-07T01:53:29;92725.59;;;0.25;100.00
3250;BME280;1637;42.020;23.992;2022-12-07T01:55:57;92766.03;;;0.61;100.00
3250;BME280;1637;42.020;23.992;2022-12-07T01:58:28;92761.00;;;0.56;100.00
3250;BME280;1637;42.020;23.992;2022-12-07T02:00:55;92771.81;;;0.66;100.00
3250;BME280;1637;42.020;23.992;2022-12-07T02:03:24;92764.50;;;0.76;100.00
3250;BME280;1637;42.020;23.992;2022-12-07T02:05:54;92752.94;;;0.96;100.00
3250;BME280;1637;42.020;23.992;2022-12-07T02:08:21;92755.59;;;0.80;100.00
3250;BME280;1637;42.020;23.992;2022-12-07T02:10:48;92752.69;;;0.69;100.00
3250;BME280;1637;42.020;23.992;2022-12-07T02:13:16;92767.41;;;0.71;100.00
3250;BME280;1637;42.020;23.992;2022-12-07T02:15:59;92748.88;;;0.83;100.00
3250;BME280;1637;42.020;23.992;2022-12-07T02:18:44;92748.88;;;0.98;100.00
3250;BME280;1637;42.020;23.992;2022-12-07T02:21:23;92744.34;;;0.99;100.00
3250;BME280;1637;42.020;23.992;2022-12-07T02:24:10;92753.19;;;0.59;100.00
3250;BME280;1637;42.020;23.992;2022-12-07T02:29:34;92755.91;;;0.63;100.00
3250;BME280;1637;42.020;23.992;2022-12-07T02:32:07;92743.75;;;0.90;100.00
3250;BME280;1637;42.020;23.992;2022-12-07T02:34:42;92741.47;;;0.88;100.00
3250;BME280;1637;42.020;23.992;2022-12-07T02:37:18;92735.19;;;0.61;100.00
3250;BME280;1637;42.020;23.992;2022-12-07T02:39:51;92736.03;;;0.81;100.00
3250;BME280;1637;42.020;23.992;2022-12-07T02:42:24;92733.47;;;0.85;100.00
3250;BME280;1637;42.020;23.992;2022-12-07T02:44:55;92736.28;;;0.92;100.00
3250;BME280;1637;42.020;23.992;2022-12-07T02:47:24;92734.22;;;0.69;100.00
3250;BME280;1637;42.020;23.992;2022-12-07T02:49:52;92736.09;;;1.00;100.00
3250;BME280;1637;42.020;23.992;2022-12-07T02:52:19;92728.69;;;0.90;100.00
3250;BME280;1637;42.020;23.992;2022-12-07T02:54:46;92722.06;;;0.65;100.00
3250;BME280;1637;42.020;23.992;2022-12-07T02:57:26;92727.53;;;0.72;100.00
3250;BME280;1637;42.020;23.992;2022-12-07T03:00:03;92725.22;;;0.71;100.00
3250;BME280;1637;42.020;23.992;2022-12-07T03:02:38;92723.78;;;0.57;100.00
3250;BME280;1637;42.020;23.992;2022-12-07T03:07:58;92722.34;;;0.60;100.00
3250;BME280;1637;42.020;23.992;2022-12-07T03:10:33;92727.59;;;0.44;100.00
3250;BME280;1637;42.020;23.992;2022-12-07T03:13:04;92728.28;;;0.73;100.00
3250;BME280;1637;42.020;23.992;2022-12-07T03:15:40;92717.47;;;0.46;100.00
3250;BME280;1637;42.020;23.992;2022-12-07T03:18:12;92703.09;;;0.91;100.00
3250;BME280;1637;42.020;23.992;2022-12-07T03:20:42;92727.56;;;1.07;100.00
3250;BME280;1637;42.020;23.992;2022-12-07T03:23:12;92724.94;;;1.07;100.00
3250;BME280;1637;42.020;23.992;2022-12-07T03:25:41;92726.03;;;1.06;100.00
3250;BME280;1637;42.020;23.992;2022-12-07T03:28:10;92726.91;;;0.94;100.00
3250;BME280;1637;42.020;23.992;2022-12-07T03:30:44;92726.41;;;0.89;100.00
3250;BME280;1637;42.020;23.992;2022-12-07T03:33:18;92723.44;;;0.90;100.00
3250;BME280;1637;42.020;23.992;2022-12-07T03:35:49;92714.50;;;0.95;100.00
3250;BME280;1637;42.020;23.992;2022-12-07T03:38:22;92722.31;;;0.91;100.00
3250;BME280;1637;42.020;23.992;2022-12-07T03:40:54;92725.97;;;0.87;100.00
3250;BME280;1637;42.020;23.992;2022-12-07T03:43:24;92717.22;;;0.98;100.00
3250;BME280;1637;42.020;23.992;2022-12-07T03:45:59;92717.31;;;0.86;100.00
3250;BME280;1637;42.020;23.992;2022-12-07T03:48:32;92720.22;;;0.81;100.00
3250;BME280;1637;42.020;23.992;2022-12-07T03:51:07;92718.41;;;1.01;100.00
3250;BME280;1637;42.020;23.992;2022-12-07T03:53:38;92720.19;;;0.97;100.00
3250;BME280;1637;42.020;23.992;2022-12-07T03:56:07;92726.66;;;0.99;100.00
3250;BME280;1637;42.020;23.992;2022-12-07T03:58:36;92727.69;;;0.79;100.00
3250;BME280;1637;42.020;23.992;2022-12-07T04:01:04;92724.03;;;0.68;100.00
3250;BME280;1637;42.020;23.992;2022-12-07T04:03:31;92723.50;;;0.62;100.00
3250;BME280;1637;42.020;23.992;2022-12-07T04:05:59;92700.28;;;0.21;100.00
3250;BME280;1637;42.020;23.992;2022-12-07T04:08:25;92721.31;;;0.64;100.00
3250;BME280;1637;42.020;23.992;2022-12-07T04:10:53;92717.66;;;0.69;100.00
3250;BME280;1637;42.020;23.992;2022-12-07T04:13:20;92699.41;;;0.60;100.00
3250;BME280;1637;42.020;23.992;2022-12-07T04:15:46;92718.66;;;0.64;100.00
3250;BME280;1637;42.020;23.992;2022-12-07T04:18:15;92715.53;;;0.75;100.00
3250;BME280;1637;42.020;23.992;2022-12-07T04:20:41;92720.44;;;0.92;100.00
3250;BME280;1637;42.020;23.992;2022-12-07T04:23:08;92715.44;;;0.87;100.00
3250;BME280;1637;42.020;23.992;2022-12-07T04:25:35;92714.31;;;0.88;100.00
3250;BME280;1637;42.020;23.992;2022-12-07T04:28:02;92720.72;;;1.02;100.00
3250;BME280;1637;42.020;23.992;2022-12-07T04:30:29;92716.69;;;1.09;100.00
3250;BME280;1637;42.020;23.992;2022-12-07T04:32:55;92711.78;;;0.91;100.00
3250;BME280;1637;42.020;23.992;2022-12-07T04:35:23;92710.69;;;0.77;100.00
3250;BME280;1637;42.020;23.992;2022-12-07T04:37:50;92714.75;;;0.90;100.00
3250;BME280;1637;42.020;23.992;2022-12-07T04:40:17;92709.50;;;0.58;100.00
3250;BME280;1637;42.020;23.992;2022-12-07T04:42:44;92705.75;;;0.75;100.00
3250;BME280;1637;42.020;23.992;2022-12-07T04:45:11;92706.25;;;0.65;100.00
3250;BME280;1637;42.020;23.992;2022-12-07T04:47:37;92698.44;;;0.68;100.00
3250;BME280;1637;42.020;23.992;2022-12-07T04:50:05;92702.28;;;0.71;100.00
3250;BME280;1637;42.020;23.992;2022-12-07T04:52:34;92699.22;;;0.69;100.00
3250;BME280;1637;42.020;23.992;2022-12-07T04:55:00;92699.47;;;0.64;100.00
3250;BME280;1637;42.020;23.992;2022-12-07T04:57:27;92706.97;;;0.62;100.00
3250;BME280;1637;42.020;23.992;2022-12-07T04:59:54;92703.47;;;0.58;100.00
3250;BME280;1637;42.020;23.992;2022-12-07T05:02:21;92703.81;;;0.56;100.00
3250;BME280;1637;42.020;23.992;2022-12-07T05:04:48;92702.78;;;0.61;100.00
3250;BME280;1637;42.020;23.992;2022-12-07T05:07:14;92711.78;;;0.76;100.00
3250;BME280;1637;42.020;23.992;2022-12-07T05:09:43;92706.09;;;0.42;100.00
3250;BME280;1637;42.020;23.992;2022-12-07T05:12:09;92706.59;;;0.48;100.00
3250;BME280;1637;42.020;23.992;2022-12-07T05:14:36;92711.63;;;0.37;100.00
3250;BME280;1637;42.020;23.992;2022-12-07T05:17:03;92714.75;;;0.43;100.00
3250;BME280;1637;42.020;23.992;2022-12-07T05:19:30;92705.41;;;0.45;100.00
3250;BME280;1637;42.020;23.992;2022-12-07T05:21:57;92718.00;;;0.52;100.00
3250;BME280;1637;42.020;23.992;2022-12-07T05:24:24;92724.97;;;0.60;100.00
3250;BME280;1637;42.020;23.992;2022-12-07T05:26:52;92728.78;;;0.62;100.00
3250;BME280;1637;42.020;23.992;2022-12-07T05:29:19;92728.09;;;0.50;100.00
3250;BME280;1637;42.020;23.992;2022-12-07T05:31:45;92726.84;;;0.59;100.00
3250;BME280;1637;42.020;23.992;2022-12-07T05:34:12;92722.84;;;0.65;100.00
3250;BME280;1637;42.020;23.992;2022-12-07T05:36:39;92724.66;;;0.61;100.00
3250;BME280;1637;42.020;23.992;2022-12-07T05:39:07;92728.34;;;0.45;100.00
3250;BME280;1637;42.020;23.992;2022-12-07T05:41:34;92729.91;;;0.77;100.00
3250;BME280;1637;42.020;23.992;2022-12-07T05:44:20;92733.72;;;0.48;100.00
3250;BME280;1637;42.020;23.992;2022-12-07T05:46:46;92730.44;;;0.83;100.00
3250;BME280;1637;42.020;23.992;2022-12-07T05:49:13;92727.25;;;0.46;100.00
3250;BME280;1637;42.020;23.992;2022-12-07T05:51:40;92729.53;;;0.31;100.00
3250;BME280;1637;42.020;23.992;2022-12-07T05:54:07;92735.38;;;0.25;100.00
3250;BME280;1637;42.020;23.992;2022-12-07T05:56:34;92737.69;;;0.26;100.00
3250;BME280;1637;42.020;23.992;2022-12-07T05:59:00;92746.06;;;1.96;100.00
3250;BME280;1637;42.020;23.992;2022-12-07T06:01:46;92734.72;;;1.07;100.00
3250;BME280;1637;42.020;23.992;2022-12-07T06:04:13;92743.41;;;1.07;100.00
3250;BME280;1637;42.020;23.992;2022-12-07T06:06:39;92737.38;;;0.91;100.00
3250;BME280;1637;42.020;23.992;2022-12-07T06:09:06;92733.06;;;0.83;100.00
3250;BME280;1637;42.020;23.992;2022-12-07T06:11:33;92697.75;;;0.72;100.00
3250;BME280;1637;42.020;23.992;2022-12-07T06:14:17;92740.75;;;1.07;100.00
3250;BME280;1637;42.020;23.992;2022-12-07T06:16:46;92743.34;;;1.03;100.00
3250;BME280;1637;42.020;23.992;2022-12-07T06:19:12;92717.59;;;0.81;100.00
3250;BME280;1637;42.020;23.992;2022-12-07T06:21:39;92738.16;;;0.60;100.00
3250;BME280;1637;42.020;23.992;2022-12-07T06:24:06;92734.41;;;0.77;100.00
3250;BME280;1637;42.020;23.992;2022-12-07T06:26:33;92738.41;;;0.55;100.00
3250;BME280;1637;42.020;23.992;2022-12-07T06:29:00;92739.69;;;0.77;100.00
3250;BME280;1637;42.020;23.992;2022-12-07T06:31:27;92740.09;;;0.47;100.00
3250;BME280;1637;42.020;23.992;2022-12-07T06:33:58;92756.13;;;0.42;100.00
3250;BME280;1637;42.020;23.992;2022-12-07T06:36:25;92738.06;;;0.56;100.00
3250;BME280;1637;42.020;23.992;2022-12-07T06:38:52;92744.00;;;0.53;100.00
3250;BME280;1637;42.020;23.992;2022-12-07T06:41:19;92747.50;;;0.57;100.00
3250;BME280;1637;42.020;23.992;2022-12-07T06:43:46;92738.16;;;0.76;100.00
3250;BME280;1637;42.020;23.992;2022-12-07T06:46:13;92748.00;;;0.94;100.00
3250;BME280;1637;42.020;23.992;2022-12-07T06:48:40;92723.59;;;0.97;100.00
3250;BME280;1637;42.020;23.992;2022-12-07T06:51:09;92744.25;;;1.46;100.00
3250;BME280;1637;42.020;23.992;2022-12-07T06:53:36;92746.28;;;1.53;100.00
3250;BME280;1637;42.020;23.992;2022-12-07T06:56:04;92749.72;;;1.92;100.00
3250;BME280;1637;42.020;23.992;2022-12-07T06:58:31;92746.06;;;1.96;100.00
3250;BME280;1637;42.020;23.992;2022-12-07T07:00:58;92748.50;;;2.24;100.00
3250;BME280;1637;42.020;23.992;2022-12-07T07:03:24;92747.31;;;1.83;100.00
3250;BME280;1637;42.020;23.992;2022-12-07T07:05:51;92757.47;;;2.00;100.00
3250;BME280;1637;42.020;23.992;2022-12-07T07:08:19;92750.78;;;2.26;100.00
3250;BME280;1637;42.020;23.992;2022-12-07T07:10:46;92745.22;;;1.92;100.00
3250;BME280;1637;42.020;23.992;2022-12-07T07:13:13;92739.88;;;2.27;100.00
3250;BME280;1637;42.020;23.992;2022-12-07T07:15:40;92753.44;;;2.68;100.00
3250;BME280;1637;42.020;23.992;2022-12-07T07:18:07;92753.78;;;2.89;100.00
3250;BME280;1637;42.020;23.992;2022-12-07T07:20:34;92751.13;;;2.66;100.00
3250;BME280;1637;42.020;23.992;2022-12-07T07:23:01;92749.72;;;3.44;100.00
3250;BME280;1637;42.020;23.992;2022-12-07T07:25:29;92753.38;;;4.56;99.93
3250;BME280;1637;42.020;23.992;2022-12-07T07:27:56;92755.75;;;5.09;93.92
3250;BME280;1637;42.020;23.992;2022-12-07T07:30:23;92756.66;;;5.85;91.19
3250;BME280;1637;42.020;23.992;2022-12-07T07:32:56;92755.72;;;6.26;87.61
3250;BME280;1637;42.020;23.992;2022-12-07T07:35:23;92758.25;;;7.19;82.34
3250;BME280;1637;42.020;23.992;2022-12-07T07:37:49;92762.53;;;8.72;77.59
3250;BME280;1637;42.020;23.992;2022-12-07T07:40:16;92757.09;;;8.89;76.30
3250;BME280;1637;42.020;23.992;2022-12-07T07:42:47;92770.28;;;9.70;73.11
3250;BME280;1637;42.020;23.992;2022-12-07T07:45:14;92728.91;;;9.78;72.17
3250;BME280;1637;42.020;23.992;2022-12-07T07:47:40;92767.91;;;10.84;69.11
3250;BME280;1637;42.020;23.992;2022-12-07T07:50:08;92767.59;;;11.36;66.78
3250;BME280;1637;42.020;23.992;2022-12-07T07:52:35;92760.56;;;10.92;68.70
3250;BME280;1637;42.020;23.992;2022-12-07T07:55:02;92765.75;;;11.02;67.28
3250;BME280;1637;42.020;23.992;2022-12-07T07:57:29;92750.59;;;10.31;69.33
3250;BME280;1637;42.020;23.992;2022-12-07T07:59:57;92762.31;;;10.04;70.24
3250;BME280;1637;42.020;23.992;2022-12-07T08:02:24;92771.72;;;11.67;67.46
3250;BME280;1637;42.020;23.992;2022-12-07T08:04:51;92766.22;;;12.01;64.08
3250;BME280;1637;42.020;23.992;2022-12-07T08:07:18;92766.03;;;11.89;64.66
3250;BME280;1637;42.020;23.992;2022-12-07T08:09:45;92741.56;;;11.60;65.51
3250;BME280;1637;42.020;23.992;2022-12-07T08:12:12;92755.31;;;12.71;63.55
3250;BME280;1637;42.020;23.992;2022-12-07T08:14:39;92757.94;;;12.35;62.64
3250;BME280;1637;42.020;23.992;2022-12-07T08:17:08;92752.13;;;12.17;64.68
3250;BME280;1637;42.020;23.992;2022-12-07T08:19:34;92772.66;;;11.84;64.95
3250;BME280;1637;42.020;23.992;2022-12-07T08:22:02;92747.69;;;11.10;67.88
3250;BME280;1637;42.020;23.992;2022-12-07T08:24:28;92735.84;;;10.50;68.20
3250;BME280;1637;42.020;23.992;2022-12-07T08:26:55;92735.00;;;9.82;71.79
3250;BME280;1637;42.020;23.992;2022-12-07T08:29:22;92740.13;;;10.75;70.29
3250;BME280;1637;42.020;23.992;2022-12-07T08:31:49;92733.25;;;13.68;62.05
3250;BME280;1637;42.020;23.992;2022-12-07T08:34:17;92741.13;;;13.27;61.76
3250;BME280;1637;42.020;23.992;2022-12-07T08:36:44;92743.06;;;13.59;61.30
3250;BME280;1637;42.020;23.992;2022-12-07T08:39:11;92744.69;;;14.18;60.10
3250;BME280;1637;42.020;23.992;2022-12-07T08:41:38;92739.56;;;14.81;58.06
3250;BME280;1637;42.020;23.992;2022-12-07T08:44:05;92706.38;;;14.55;58.45
3250;BME280;1637;42.020;23.992;2022-12-07T08:46:35;92727.94;;;14.26;58.66
3250;BME280;1637;42.020;23.992;2022-12-07T08:49:05;92731.53;;;13.91;59.03
3250;BME280;1637;42.020;23.992;2022-12-07T08:51:35;92614.16;;;12.67;66.95
3250;BME280;1637;42.020;23.992;2022-12-07T08:54:06;92715.13;;;12.84;65.10
3250;BME280;1637;42.020;23.992;2022-12-07T08:56:34;92719.00;;;13.35;63.36
3250;BME280;1637;42.020;23.992;2022-12-07T08:59:01;92708.50;;;13.57;62.47
3250;BME280;1637;42.020;23.992;2022-12-07T09:01:28;92715.44;;;13.06;63.75
3250;BME280;1637;42.020;23.992;2022-12-07T09:03:55;92703.13;;;11.20;68.84
3250;BME280;1637;42.020;23.992;2022-12-07T09:06:22;92698.97;;;12.28;67.61
3250;BME280;1637;42.020;23.992;2022-12-07T09:08:53;92703.34;;;13.79;63.66
3250;BME280;1637;42.020;23.992;2022-12-07T09:11:22;92692.66;;;14.21;62.57
3250;BME280;1637;42.020;23.992;2022-12-07T09:13:49;92695.22;;;14.69;61.02
3250;BME280;1637;42.020;23.992;2022-12-07T09:16:16;92695.31;;;13.47;64.24
3250;BME280;1637;42.020;23.992;2022-12-07T09:18:43;92682.69;;;12.91;65.76
3250;BME280;1637;42.020;23.992;2022-12-07T09:21:10;92685.53;;;13.85;63.78
3250;BME280;1637;42.020;23.992;2022-12-07T09:23:37;92672.84;;;13.37;65.67
3250;BME280;1637;42.020;23.992;2022-12-07T09:26:05;92671.06;;;14.37;63.25
3250;BME280;1637;42.020;23.992;2022-12-07T09:28:32;92566.34;;;11.86;68.40
3250;BME280;1637;42.020;23.992;2022-12-07T09:30:58;92657.19;;;13.81;64.66
3250;BME280;1637;42.020;23.992;2022-12-07T09:33:25;92667.66;;;15.89;59.87
3250;BME280;1637;42.020;23.992;2022-12-07T09:35:52;92666.84;;;15.79;59.38
3250;BME280;1637;42.020;23.992;2022-12-07T09:38:19;92631.53;;;14.34;61.93
3250;BME280;1637;42.020;23.992;2022-12-07T09:40:46;92650.88;;;14.58;61.80
3250;BME280;1637;42.020;23.992;2022-12-07T09:43:17;92645.16;;;15.44;59.90
3250;BME280;1637;42.020;23.992;2022-12-07T09:45:46;92635.13;;;15.20;60.10
3250;BME280;1637;42.020;23.992;2022-12-07T09:48:17;92633.00;;;14.89;60.84
3250;BME280;1637;42.020;23.992;2022-12-07T09:50:46;92614.78;;;14.68;61.20
3250;BME280;1637;42.020;23.992;2022-12-07T09:53:16;92615.94;;;14.13;62.87
3250;BME280;1637;42.020;23.992;2022-12-07T09:55:46;92617.34;;;15.22;59.92
3250;BME280;1637;42.020;23.992;2022-12-07T09:58:20;92623.09;;;14.73;61.36
3250;BME280;1637;42.020;23.992;2022-12-07T10:00:48;92620.34;;;14.48;61.85
3250;BME280;1637;42.020;23.992;2022-12-07T10:03:16;92617.56;;;15.15;60.66
3250;BME280;1637;42.020;23.992;2022-12-07T10:05:46;92610.34;;;14.61;60.60
3250;BME280;1637;42.020;23.992;2022-12-07T10:08:14;92610.00;;;14.47;62.32
3250;BME280;1637;42.020;23.992;2022-12-07T10:10:43;92604.09;;;14.52;62.03
3250;BME280;1637;42.020;23.992;2022-12-07T10:13:12;92603.66;;;14.66;61.33
3250;BME280;1637;42.020;23.992;2022-12-07T10:15:47;92607.22;;;15.01;61.21
3250;BME280;1637;42.020;23.992;2022-12-07T10:18:19;92590.16;;;14.40;61.53
3250;BME280;1637;42.020;23.992;2022-12-07T10:20:46;92597.91;;;13.97;61.87
3250;BME280;1637;42.020;23.992;2022-12-07T10:23:15;92595.38;;;13.16;62.97
3250;BME280;1637;42.020;23.992;2022-12-07T10:25:43;92588.91;;;13.29;63.63
3250;BME280;1637;42.020;23.992;2022-12-07T10:28:15;92589.72;;;12.94;62.94
3250;BME280;1637;42.020;23.992;2022-12-07T10:30:56;92583.59;;;12.93;63.18
3250;BME280;1637;42.020;23.992;2022-12-07T10:33:29;92583.50;;;12.97;62.97
3250;BME280;1637;42.020;23.992;2022-12-07T10:35:57;92555.28;;;12.89;63.02
3250;BME280;1637;42.020;23.992;2022-12-07T10:38:25;92596.00;;;14.10;61.38
3250;BME280;1637;42.020;23.992;2022-12-07T10:41:03;92590.72;;;14.19;61.25
3250;BME280;1637;42.020;23.992;2022-12-07T10:43:30;92590.16;;;12.40;66.11
3250;BME280;1637;42.020;23.992;2022-12-07T10:46:37;92584.13;;;12.36;68.03
3250;BME280;1637;42.020;23.992;2022-12-07T10:49:25;92594.75;;;12.76;67.11
3250;BME280;1637;42.020;23.992;2022-12-07T10:52:00;92587.38;;;12.80;67.38
3250;BME280;1637;42.020;23.992;2022-12-07T10:54:38;92582.66;;;13.00;66.98
3250;BME280;1637;42.020;23.992;2022-12-07T10:57:31;92586.44;;;13.02;66.60
3250;BME280;1637;42.020;23.992;2022-12-07T11:00:09;92573.16;;;12.63;68.10
3250;BME280;1637;42.020;23.992;2022-12-07T11:05:49;92570.00;;;12.84;67.67
3250;BME280;1637;42.020;23.992;2022-12-07T11:08:33;92566.03;;;12.89;67.40
3250;BME280;1637;42.020;23.992;2022-12-07T11:11:09;92563.59;;;12.94;67.97
3250;BME280;1637;42.020;23.992;2022-12-07T11:13:44;92534.19;;;12.38;67.44
3250;BME280;1637;42.020;23.992;2022-12-07T11:16:23;92567.66;;;12.86;67.92
3250;BME280;1637;42.020;23.992;2022-12-07T11:19:02;92560.38;;;13.32;67.05
3250;BME280;1637;42.020;23.992;2022-12-07T11:21:39;92563.09;;;13.16;67.03
3250;BME280;1637;42.020;23.992;2022-12-07T11:24:13;92546.97;;;12.99;66.80
3250;BME280;1637;42.020;23.992;2022-12-07T11:26:56;92560.66;;;13.05;66.77
3250;BME280;1637;42.020;23.992;2022-12-07T11:29:38;92555.72;;;13.20;66.50
3250;BME280;1637;42.020;23.992;2022-12-07T11:32:15;92551.31;;;12.93;67.11
3250;BME280;1637;42.020;23.992;2022-12-07T11:34:51;92541.91;;;13.01;67.05
3250;BME280;1637;42.020;23.992;2022-12-07T11:37:28;92477.19;;;12.47;67.03
3250;BME280;1637;42.020;23.992;2022-12-07T11:40:00;92538.72;;;12.74;67.21
3250;BME280;1637;42.020;23.992;2022-12-07T11:42:31;92537.97;;;12.57;68.32
3250;BME280;1637;42.020;23.992;2022-12-07T11:45:10;92531.09;;;12.40;68.51
3250;BME280;1637;42.020;23.992;2022-12-07T11:47:45;92529.31;;;12.50;68.95
3250;BME280;1637;42.020;23.992;2022-12-07T11:50:23;92535.09;;;12.48;68.64
3250;BME280;1637;42.020;23.992;2022-12-07T11:52:55;92520.59;;;12.46;68.88
3250;BME280;1637;42.020;23.992;2022-12-07T11:55:28;92523.91;;;12.17;69.93
3250;BME280;1637;42.020;23.992;2022-12-07T11:58:02;92518.19;;;12.15;70.16
3250;BME280;1637;42.020;23.992;2022-12-07T12:00:29;92517.19;;;11.69;70.83
3250;BME280;1637;42.020;23.992;2022-12-07T12:02:59;92513.59;;;11.80;71.14
3250;BME280;1637;42.020;23.992;2022-12-07T12:05:28;92519.06;;;11.92;70.96
3250;BME280;1637;42.020;23.992;2022-12-07T12:08:01;92517.19;;;11.69;71.58
3250;BME280;1637;42.020;23.992;2022-12-07T12:10:38;92510.94;;;11.56;71.82
3250;BME280;1637;42.020;23.992;2022-12-07T12:13:43;92506.19;;;11.44;72.88
3250;BME280;1637;42.020;23.992;2022-12-07T12:16:39;92504.97;;;11.29;72.97
3250;BME280;1637;42.020;23.992;2022-12-07T12:19:23;92476.09;;;11.17;72.61
3250;BME280;1637;42.020;23.992;2022-12-07T12:21:55;92525.47;;;11.39;72.28
3250;BME280;1637;42.020;23.992;2022-12-07T12:24:26;92504.38;;;11.41;73.13
3250;BME280;1637;42.020;23.992;2022-12-07T12:26:59;92485.38;;;11.32;72.78
3250;BME280;1637;42.020;23.992;2022-12-07T12:29:32;92495.41;;;11.48;73.02
3250;BME280;1637;42.020;23.992;2022-12-07T12:32:15;92487.22;;;11.35;72.93
3250;BME280;1637;42.020;23.992;2022-12-07T12:34:59;92487.16;;;11.39;73.32
3250;BME280;1637;42.020;23.992;2022-12-07T12:37:42;92480.91;;;11.25;73.08
3250;BME280;1637;42.020;23.992;2022-12-07T12:40:39;92487.09;;;11.62;72.77
3250;BME280;1637;42.020;23.992;2022-12-07T12:43:39;92484.97;;;11.53;73.01
3250;BME280;1637;42.020;23.992;2022-12-07T12:46:38;92482.22;;;11.57;72.64
3250;BME280;1637;42.020;23.992;2022-12-07T12:49:33;92481.88;;;11.55;72.92
3250;BME280;1637;42.020;23.992;2022-12-07T12:52:01;92484.34;;;11.46;73.53
3250;BME280;1637;42.020;23.992;2022-12-07T12:54:59;92484.94;;;11.73;72.52
3250;BME280;1637;42.020;23.992;2022-12-07T12:57:29;92486.44;;;11.74;72.60
3250;BME280;1637;42.020;23.992;2022-12-07T12:59:57;92482.41;;;11.46;73.43
3250;BME280;1637;42.020;23.992;2022-12-07T13:02:26;92476.69;;;11.44;73.48
3250;BME280;1637;42.020;23.992;2022-12-07T13:04:56;92480.63;;;11.40;73.42
3250;BME280;1637;42.020;23.992;2022-12-07T13:07:50;92485.50;;;11.45;73.69
3250;BME280;1637;42.020;23.992;2022-12-07T13:10:24;92487.00;;;11.46;73.63
3250;BME280;1637;42.020;23.992;2022-12-07T13:12:59;92485.91;;;11.43;73.16
3250;BME280;1637;42.020;23.992;2022-12-07T13:15:34;92488.31;;;11.18;74.13
3250;BME280;1637;42.020;23.992;2022-12-07T13:20:49;92490.53;;;11.43;73.83
3250;BME280;1637;42.020;23.992;2022-12-07T13:23:37;92487.84;;;11.62;73.46
3250;BME280;1637;42.020;23.992;2022-12-07T13:26:12;92485.03;;;11.50;73.27
3250;BME280;1637;42.020;23.992;2022-12-07T13:28:43;92485.78;;;11.30;74.10
3250;BME280;1637;42.020;23.992;2022-12-07T13:31:32;92476.69;;;11.24;74.79
3250;BME280;1637;42.020;23.992;2022-12-07T13:34:00;92478.56;;;11.27;74.19
3250;BME280;1637;42.020;23.992;2022-12-07T13:36:29;92473.06;;;11.15;74.22
3250;BME280;1637;42.020;23.992;2022-12-07T13:39:15;92471.25;;;11.08;74.52
3250;BME280;1637;42.020;23.992;2022-12-07T13:41:45;92433.59;;;10.76;73.97